Rhinehart, Louisiana
Current Conditions -  °F | °C
As of 12:53 AM on Sunday 23 Nov 2014 (Local Time) from KESF Reporting Station
Light Rain Light Rain  
Wind Chill: 64°   Ceiling: 700
Heat Index: 64°   Visibility: 10mi
Dew Point: 61°   Wind: 9mph
Humidity: 90%   Direction: 140°SE
Pressure: 29.78"   Gusts: NA
Location:  31.64°N, 92.01°W
Report Text: KESF 230653Z AUTO 14008KT 10SM -RA OVC007 18/16 A2978 RMK AO2 RAB0555 CIG 006V011 SLP083 P0001 T01780161
Loading
Personal Weather Stations






























Interactive Weather Map New forecast layout! Learn more

10-Day Weather Forecast

Advertisements
Track Severe Weather on mobile